• Join FlightAware (Why Join?)
  • Login
  • US Flag 
03:45AM EDT


 

Airport Tracker/Info


-or-


 

Live Flight TrackerFlight Track Log ✈ UAL3744 ✈ 21-Apr-2013 ✈ KCLT - KIAD

Flight Track Log - Related Links

Times and Time Zones

All times are in EDT time to prevent confusion due to time zone crossing. See the UAL3744 flight status page for this flight to view local times or setup timezone preferences in your user account.

Time Position Orientation Groundspeed Altitude Reporting Facility
EDT Latitude Longitude Course Direction KTS MPH feet Rate Location/Type
05:56AM 35.2242 -80.9319 72° East 148 170 1,400  Level Atlanta Center
05:57AM 35.2522 -80.8903 50° Northeast 171 197 2,900 2,160 Climbing Atlanta Center
05:59AM 35.2783 -80.7747 74° East 252 290 6,600 2,400 Climbing Atlanta Center
06:00AM 35.2407 -80.5376 30° Northeast  Level FlightAware Approximate
06:00AM 35.2947 -80.6800 78° East 271 312 8,900  Level Atlanta Center
06:01AM 35.3337 -80.4652 72° East  Level FlightAware Approximate
06:01AM 35.3147 -80.5747 77° East 297 342 10,900  Level Atlanta Center
06:02AM 35.3705 -80.3260 72° East  Level FlightAware Approximate
06:02AM 35.3364 -80.4592 77° East 333 383 13,400  Level Atlanta Center
06:04AM 35.3994 -80.2550 69° East 366 421 16,100 1,620 Climbing Washington Center
06:05AM 35.4378 -80.1325 69° East 379 436 18,100 1,920 Climbing Washington Center
06:06AM 35.4719 -79.9942 73° East 390 449 20,000 1,800 Climbing Washington Center
06:07AM 35.5081 -79.8608 72° East 395 455 21,800 1,740 Climbing Washington Center
06:08AM 35.5422 -79.7247 73° East 401 461 23,500 1,560 Climbing Washington Center
06:09AM 35.5736 -79.5989 73° East 421 484 25,000 1,500 Climbing Washington Center
06:10AM 35.6142 -79.4397 73° East 440 506 26,500 960 Climbing Washington Center
06:11AM 35.6992 -79.3314 46° Northeast 424 488 27,000 240 Climbing Washington Center
06:12AM 35.8103 -79.2444 32° Northeast 445 512 27,000  Level Washington Center
06:13AM 35.9236 -79.1522 33° Northeast 462 532 27,000  Level Washington Center
06:14AM 36.0264 -79.0694 33° Northeast 475 547 27,000  Level Washington Center
06:15AM 36.1394 -78.9767 34° Northeast 485 558 27,000  Level Washington Center
06:16AM 36.2567 -78.8864 32° Northeast 490 564 27,000  Level Washington Center
06:17AM 36.3700 -78.7933 33° Northeast 495 570 27,000  Level Washington Center
06:18AM 36.4831 -78.6997 34° Northeast 490 564 27,000  Level Washington Center
06:19AM 36.5958 -78.6086 33° Northeast 490 564 27,000  Level Washington Center
06:20AM 36.7217 -78.5019 34° Northeast 490 564 27,000  Level Washington Center
06:21AM 36.8217 -78.4200 33° Northeast 495 570 27,000  Level Washington Center
06:22AM 36.9236 -78.3356 34° Northeast 495 570 27,000  Level Washington Center
06:23AM 37.0514 -78.2306 33° Northeast 495 570 27,000  Level Washington Center
06:24AM 37.1744 -78.1306 33° Northeast 490 564 27,000  Level Washington Center
06:25AM 37.2850 -78.0350 35° Northeast 490 564 27,000 -300 Level Washington Center
06:26AM 37.4017 -77.9342 34° Northeast 490 564 26,400 -1,740 Descending Washington Center
06:27AM 37.5161 -77.8436 32° Northeast 495 570 23,600 -2,880 Descending Washington Center
06:28AM 37.6300 -77.7708 27° Northeast 477 549 20,700 -2,820 Descending Washington Center
06:29AM 37.7439 -77.7033 25° Northeast 452 520 18,000 -2,460 Descending Washington Center
06:30AM 37.8514 -77.6406 25° Northeast 437 503 15,800 -2,460 Descending Washington Center
06:31AM 37.9522 -77.5828 24° Northeast 411 473 13,100 -2,640 Descending Washington Center
06:32AM 38.0492 -77.5300 23° Northeast 387 445 10,600 -1,560 Descending Washington Center
06:33AM 38.1356 -77.4767 26° Northeast 365 420 10,000 -300 Descending Washington Center
06:34AM 38.2114 -77.4308 25° Northeast 323 372 10,000 -360 Level Washington Center
06:35AM 38.2847 -77.3931 22° Northeast 298 343 9,300  Descending Washington Center
06:36AM 38.3553 -77.4292 338° Northwest 256 295 10,000 -1,320 Climbing Washington Center
06:37AM 38.4192 -77.4706 333° Northwest 249 287 6,700 -2,460 Descending Washington Center
06:38AM 38.4900 -77.4722 359° North 249 287 5,100 -900 Descending Washington Center
06:39AM 38.5608 -77.4714 North 249 287 5,000 -180 Descending Washington Center
06:40AM 38.6319 -77.4681 North 249 287 4,800 -660 Descending Washington Center
06:40AM 38.6500 -77.4667 North 247 284 4,200 -540 Descending Potomac TRACON
06:41AM 38.7167 -77.4667 360° North 236 272 4,100 -240 Descending Potomac TRACON
06:42AM 38.7833 -77.4667 360° North 173 199 3,800 -600 Descending Potomac TRACON
06:43AM 38.8167 -77.4667 360° North 133 153 2,900 -780 Descending Potomac TRACON
06:44AM 38.8500 -77.4667 360° North 126 145 2,400 -600 Descending Potomac TRACON